Portada
METAR-TAF:

METAR-TAF

Aeroports :

Hefei, Xina

latitud: 31-52N, longitud: 117-14E, altitud: 36 m

Observació

L'informe es va fer fa 56 minuts, a les 00:00 UTC
Vent calma
Temperatura 1°C
Humitat 86%
Pressió 1028 hPa
Visibilitat: 4000 m
boirina

METAR: ZSOF 060000Z 00000MPS 4000 BR NSC 01/M01 Q1028 NOSIG

Hora: 08:56 (00:56 UTC)

Pronòstic

L'informe es va fer fa 3 hores i 51 minuts, a les 21:05 UTC
Pronòstic vàlid del 06 a les 00 UTC al 06 a les 24 UTC
Vent 6 kt del Nord
Visibilitat: 5000 m
calitja
Evolucionant progressivament
l' 06 a les 11 UTC al 06 a les 12 UTC
Visibilitat: 2700 m
pluja, boirina
Evolucionant progressivament
l' 06 a les 12 UTC al 06 a les 13 UTC
Visibilitat: 3000 m

TAF: ZSOF 052105Z 0600/0624 36003MPS 5000 HZ NSC TX11/0607Z TN01/0600Z BECMG 0611/0612 2700 -RA BR BECMG 0612/0613 3000

Observacions i pronòstics meteorològics de més de 4000 aeroports (METAR i TAF).

Les estacions disponibles són els punts grocs i vermells al mapa.

Posi el ratolí al punt desitjat per veure el nom de l'estació.

Feu clic per veure les observacions i els pronòstics meteorològics.

Per canviar el mapa: feu clic els botons verds amb una creu de color negre per apropar; al botó verd amb un guió per allunyar la imatge; o en les fletxes verdes per a mapes adjacents.


METAR-TAF: